Time;durP1;ratioP1;P1;durP2;ratioP2;P2;SDS_P1;SDS_P2;PMS_P1;PMS_P2;Temp;Humidity;BMP_temperature;BMP_pressure;BME280_temperature;BME280_humidity;BME280_pressure;Samples;Min_cycle;Max_cycle;Signal;HPM_P1;HPM_P2
2023/11/19 00:01:35;;;;;;;12.33;7.13;;;2.40;99.90;;;;;;4177533;28;20273;-61
2023/11/19 00:03:36;;;;;;;7.83;4.40;;;2.40;99.90;;;;;;4177789;28;20258;-62
2023/11/19 00:05:37;;;;;;;5.17;3.47;;;2.40;99.90;;;;;;4177265;28;20274;-60
2023/11/19 00:07:41;;;;;;;5.30;4.00;;;2.40;99.90;;;;;;4177491;28;20324;-61
2023/11/19 00:09:43;;;;;;;5.37;4.20;;;2.40;99.90;;;;;;4161144;28;20344;-61
2023/11/19 00:11:44;;;;;;;7.07;4.63;;;2.40;99.90;;;;;;4159742;28;20321;-61
2023/11/19 00:13:45;;;;;;;3.97;3.17;;;2.40;99.90;;;;;;4161278;28;20291;-62
2023/11/19 00:15:47;;;;;;;3.80;2.80;;;2.40;99.90;;;;;;4160600;28;20637;-61
2023/11/19 00:17:48;;;;;;;3.67;2.63;;;2.40;99.90;;;;;;4161945;28;20359;-61
2023/11/19 00:19:51;;;;;;;6.77;4.23;;;2.40;99.90;;;;;;4160571;28;20302;-60
2023/11/19 00:21:52;;;;;;;4.50;3.03;;;2.40;99.90;;;;;;4160928;28;20340;-61
2023/11/19 00:23:53;;;;;;;3.20;2.80;;;2.40;99.90;;;;;;4160607;28;20754;-60
2023/11/19 00:25:55;;;;;;;3.40;2.57;;;2.40;99.90;;;;;;4160877;28;20258;-60
2023/11/19 00:27:56;;;;;;;3.33;2.70;;;2.40;99.90;;;;;;4160699;28;20283;-59
2023/11/19 00:29:57;;;;;;;3.53;2.53;;;2.30;99.90;;;;;;4160800;28;20275;-60
2023/11/19 00:31:58;;;;;;;4.37;3.20;;;2.30;99.90;;;;;;4162944;28;20742;-60
2023/11/19 00:33:59;;;;;;;4.07;3.10;;;2.40;99.90;;;;;;4176709;28;20285;-61
2023/11/19 00:36:00;;;;;;;3.27;2.50;;;2.30;99.90;;;;;;4177150;28;20262;-61
2023/11/19 00:38:03;;;;;;;3.23;2.30;;;2.40;99.90;;;;;;4174703;28;20313;-61
2023/11/19 00:40:07;;;;;;;3.30;2.57;;;2.30;99.90;;;;;;4172837;28;20708;-60
2023/11/19 00:42:09;;;;;;;2.70;2.27;;;2.30;99.90;;;;;;4177018;28;20815;-61
2023/11/19 00:44:11;;;;;;;2.67;2.43;;;2.30;99.90;;;;;;4172137;28;20434;-61
2023/11/19 00:46:13;;;;;;;3.27;2.27;;;2.30;99.90;;;;;;4176276;28;20773;-61
2023/11/19 00:48:14;;;;;;;3.63;2.30;;;2.30;99.90;;;;;;4175946;28;20286;-60
2023/11/19 00:50:15;;;;;;;3.10;2.27;;;2.30;99.90;;;;;;4171518;28;20293;-61
2023/11/19 00:52:17;;;;;;;3.77;2.60;;;2.30;99.90;;;;;;4176480;28;20343;-61
2023/11/19 00:54:18;;;;;;;3.20;2.10;;;2.30;99.90;;;;;;4171783;28;20270;-61
2023/11/19 00:56:19;;;;;;;4.20;2.30;;;2.20;99.90;;;;;;4176776;28;20278;-59
2023/11/19 00:58:21;;;;;;;4.30;2.30;;;2.20;99.90;;;;;;4176662;28;20274;-60
2023/11/19 01:00:24;;;;;;;3.97;2.40;;;2.20;99.90;;;;;;4175883;28;20306;-60
2023/11/19 01:02:25;;;;;;;3.17;2.00;;;2.20;99.90;;;;;;4176558;28;20609;-60
2023/11/19 01:04:26;;;;;;;3.07;2.13;;;2.20;99.90;;;;;;4171549;28;20279;-63
2023/11/19 01:06:28;;;;;;;2.23;1.97;;;2.20;99.90;;;;;;4176779;28;20764;-61
2023/11/19 01:08:29;;;;;;;2.90;2.40;;;2.30;99.90;;;;;;4171785;28;20274;-61
2023/11/19 01:10:30;;;;;;;2.13;1.90;;;2.20;99.90;;;;;;4163501;28;20275;-60
2023/11/19 01:12:32;;;;;;;3.23;2.07;;;2.20;99.90;;;;;;4159811;28;20275;-60
2023/11/19 01:14:33;;;;;;;2.50;2.30;;;2.20;99.90;;;;;;4162588;28;20301;-61
2023/11/19 01:16:34;;;;;;;3.17;2.20;;;2.20;99.90;;;;;;4170421;28;20684;-61
2023/11/19 01:18:36;;;;;;;2.90;2.60;;;2.20;99.90;;;;;;4173596;28;20331;-62
2023/11/19 01:20:37;;;;;;;3.23;2.47;;;2.20;99.90;;;;;;4170841;28;20324;-61
2023/11/19 01:22:38;;;;;;;3.03;2.43;;;2.20;99.90;;;;;;4176113;28;20270;-61
2023/11/19 01:24:39;;;;;;;2.93;2.70;;;2.20;99.90;;;;;;4174288;28;20753;-61
2023/11/19 01:26:45;;;;;;;3.03;2.30;;;2.10;99.90;;;;;;4173822;28;20336;-62
2023/11/19 01:28:47;;;;;;;3.37;2.57;;;2.20;99.90;;;;;;4175599;28;20270;-61
2023/11/19 01:30:51;;;;;;;3.13;2.40;;;2.20;99.90;;;;;;4171138;28;20312;-60
2023/11/19 01:32:52;;;;;;;3.83;3.03;;;2.10;99.90;;;;;;4175933;28;20258;-60
2023/11/19 01:34:53;;;;;;;3.03;2.33;;;2.10;99.90;;;;;;4172976;28;20321;-61
2023/11/19 01:36:54;;;;;;;4.70;2.47;;;2.10;99.90;;;;;;4174509;28;20753;-62
2023/11/19 01:38:55;;;;;;;3.10;2.60;;;2.00;99.90;;;;;;4176220;28;20862;-62
2023/11/19 01:40:59;;;;;;;3.80;2.70;;;2.00;99.90;;;;;;4170726;28;20286;-62
2023/11/19 01:43:00;;;;;;;3.77;2.60;;;2.00;99.90;;;;;;4176543;28;20312;-62
2023/11/19 01:45:02;;;;;;;4.07;2.67;;;2.00;99.90;;;;;;4161248;28;20282;-61
2023/11/19 01:47:03;;;;;;;3.20;2.70;;;2.00;99.90;;;;;;4159342;28;20270;-61
2023/11/19 01:49:05;;;;;;;3.67;2.40;;;1.90;99.90;;;;;;4159631;28;20333;-61
2023/11/19 01:51:08;;;;;;;3.17;2.43;;;1.90;99.90;;;;;;4160401;28;20270;-59
2023/11/19 01:53:09;;;;;;;3.27;2.23;;;1.90;99.90;;;;;;4159603;28;20621;-59
2023/11/19 01:55:11;;;;;;;2.97;2.30;;;1.80;99.90;;;;;;4158981;28;20325;-61
2023/11/19 01:57:13;;;;;;;2.37;2.17;;;1.80;99.90;;;;;;4159562;28;20251;-61
2023/11/19 01:59:15;;;;;;;2.67;2.07;;;1.80;99.90;;;;;;4159462;28;20251;-61
2023/11/19 02:01:17;;;;;;;2.23;2.00;;;1.80;99.90;;;;;;4158657;28;20295;-62
2023/11/19 02:03:19;;;;;;;3.50;2.47;;;1.70;99.90;;;;;;4158701;28;20350;-61
2023/11/19 02:05:21;;;;;;;4.17;2.70;;;1.70;99.90;;;;;;4158739;28;20270;-61
2023/11/19 02:07:25;;;;;;;3.20;2.60;;;1.70;99.90;;;;;;4159510;28;20344;-61
2023/11/19 02:09:27;;;;;;;3.77;2.80;;;1.70;99.90;;;;;;4158612;28;20301;-60
2023/11/19 02:11:29;;;;;;;3.13;2.47;;;1.60;99.90;;;;;;4159343;28;20267;-61
2023/11/19 02:13:30;;;;;;;4.70;2.10;;;1.60;99.90;;;;;;4158968;28;20263;-61
2023/11/19 02:15:33;;;;;;;3.63;2.57;;;1.60;99.90;;;;;;4163911;28;20290;-61
2023/11/19 02:17:34;;;;;;;2.90;2.20;;;1.50;99.90;;;;;;4174808;28;20274;-62
2023/11/19 02:19:36;;;;;;;2.47;2.23;;;1.50;99.90;;;;;;4174376;28;20273;-61
2023/11/19 02:21:37;;;;;;;3.40;2.60;;;1.50;99.90;;;;;;4178405;28;20250;-61
2023/11/19 02:23:38;;;;;;;3.70;2.43;;;1.50;99.90;;;;;;4179504;28;20622;-61
2023/11/19 02:25:40;;;;;;;4.90;2.20;;;1.40;99.90;;;;;;4179037;28;20803;-61
2023/11/19 02:27:46;;;;;;;2.40;2.20;;;1.40;99.90;;;;;;4178433;28;20680;-62
2023/11/19 02:29:48;;;;;;;3.50;2.73;;;1.40;99.90;;;;;;4178849;28;20412;-62
2023/11/19 02:31:49;;;;;;;3.83;2.33;;;1.40;99.90;;;;;;4178928;28;20262;-61
2023/11/19 02:33:50;;;;;;;2.60;2.40;;;1.40;99.90;;;;;;4178584;28;20274;-61
2023/11/19 02:35:51;;;;;;;3.77;2.90;;;1.40;99.90;;;;;;4178603;28;20814;-62
2023/11/19 02:37:52;;;;;;;3.67;2.90;;;1.30;99.90;;;;;;4178009;28;21040;-60
2023/11/19 02:39:53;;;;;;;3.37;2.53;;;1.30;99.90;;;;;;4178819;28;20895;-60
2023/11/19 02:41:55;;;;;;;3.97;2.70;;;1.30;99.90;;;;;;4178888;28;20288;-62
2023/11/19 02:43:56;;;;;;;3.50;2.80;;;1.30;99.90;;;;;;4179353;28;20300;-61
2023/11/19 02:45:57;;;;;;;2.97;2.40;;;1.30;99.90;;;;;;4173265;28;20286;-60
2023/11/19 02:48:01;;;;;;;4.00;2.70;;;1.30;99.90;;;;;;4178715;28;20291;-60
2023/11/19 02:50:02;;;;;;;3.30;3.00;;;1.30;99.90;;;;;;4178868;28;20270;-60
2023/11/19 02:52:05;;;;;;;4.30;3.23;;;1.20;99.90;;;;;;4172660;28;20274;-63
2023/11/19 02:54:07;;;;;;;6.10;3.30;;;1.20;99.90;;;;;;4178900;28;20274;-62
2023/11/19 02:56:24;;;;;;;5.00;3.33;;;1.20;99.90;;;;;;4174314;28;20286;-62
2023/11/19 02:58:28;;;;;;;5.90;3.90;;;1.20;99.90;;;;;;4162242;28;20696;-63
2023/11/19 03:00:42;;;;;;;3.97;2.87;;;1.10;99.90;;;;;;4162222;28;20693;-62
2023/11/19 03:02:47;;;;;;;5.07;2.90;;;1.10;99.90;;;;;;4176162;28;20668;-61
2023/11/19 03:04:49;;;;;;;4.77;3.60;;;1.00;99.90;;;;;;4178308;28;20262;-59
2023/11/19 03:06:50;;;;;;;5.77;3.50;;;1.00;99.90;;;;;;4177535;28;20278;-62
2023/11/19 03:08:51;;;;;;;6.10;4.10;;;1.00;99.90;;;;;;4177506;28;20262;-61
2023/11/19 03:10:52;;;;;;;5.33;3.80;;;1.00;99.90;;;;;;4178283;28;20810;-61
2023/11/19 03:12:55;;;;;;;5.97;4.33;;;1.00;99.90;;;;;;4178037;28;20273;-60
2023/11/19 03:14:56;;;;;;;5.67;3.80;;;0.90;99.90;;;;;;4178630;28;20961;-63
2023/11/19 03:16:57;;;;;;;5.23;3.60;;;0.90;99.90;;;;;;4175047;28;20290;-62
2023/11/19 03:19:00;;;;;;;6.20;4.10;;;0.90;99.90;;;;;;4161825;28;20266;-61
2023/11/19 03:21:01;;;;;;;6.23;4.30;;;0.90;99.90;;;;;;4162668;28;20356;-63
2023/11/19 03:23:02;;;;;;;6.37;4.10;;;0.80;99.90;;;;;;4161448;28;20666;-62
2023/11/19 03:25:04;;;;;;;6.83;4.70;;;0.80;99.90;;;;;;4161173;28;20333;-63
2023/11/19 03:27:05;;;;;;;6.87;4.73;;;0.70;99.90;;;;;;4161565;28;20275;-62
2023/11/19 03:29:06;;;;;;;5.83;4.33;;;0.70;99.90;;;;;;4176664;28;20324;-62
2023/11/19 03:31:10;;;;;;;6.30;4.53;;;0.70;99.90;;;;;;4178047;28;20819;-62
2023/11/19 03:33:11;;;;;;;6.00;4.40;;;0.60;99.90;;;;;;4175594;28;20758;-62
2023/11/19 03:35:12;;;;;;;5.87;3.97;;;0.60;99.90;;;;;;4161500;28;20340;-62
2023/11/19 03:37:17;;;;;;;6.80;4.47;;;0.60;99.90;;;;;;4161594;28;20593;-62
2023/11/19 03:39:18;;;;;;;6.37;4.00;;;0.60;99.90;;;;;;4160607;28;20333;-62
2023/11/19 03:41:19;;;;;;;6.60;4.40;;;0.60;99.90;;;;;;4161513;28;20394;-61
2023/11/19 03:43:20;;;;;;;8.43;3.90;;;0.50;99.90;;;;;;4161738;28;20346;-62
2023/11/19 03:45:21;;;;;;;7.63;4.07;;;0.50;99.90;;;;;;4161574;28;20583;-62
2023/11/19 03:47:23;;;;;;;6.50;4.80;;;0.50;99.90;;;;;;4161197;28;20366;-62
2023/11/19 03:49:24;;;;;;;7.97;4.73;;;0.50;99.90;;;;;;4161442;28;20262;-61
2023/11/19 03:51:25;;;;;;;6.00;4.50;;;0.50;99.90;;;;;;4161308;28;20279;-62
2023/11/19 03:53:26;;;;;;;8.23;4.70;;;0.40;99.90;;;;;;4160916;28;20266;-61
2023/11/19 03:55:27;;;;;;;10.50;4.80;;;0.40;99.90;;;;;;4160773;28;20267;-61
2023/11/19 03:57:28;;;;;;;6.43;4.20;;;0.40;99.90;;;;;;4160850;28;20334;-61
2023/11/19 03:59:29;;;;;;;9.33;5.17;;;0.30;99.90;;;;;;4160859;28;20670;-61
2023/11/19 04:01:30;;;;;;;6.63;4.77;;;0.30;99.90;;;;;;4160592;28;20364;-62
2023/11/19 04:03:31;;;;;;;8.10;4.47;;;0.30;99.90;;;;;;4161132;28;20335;-62
2023/11/19 04:05:32;;;;;;;8.30;5.23;;;0.30;99.90;;;;;;4161149;28;21063;-62
2023/11/19 04:07:34;;;;;;;8.07;4.67;;;0.30;99.90;;;;;;4164309;28;20717;-62
2023/11/19 04:09:37;;;;;;;6.37;4.33;;;0.20;99.90;;;;;;4160171;28;20255;-59
2023/11/19 04:11:39;;;;;;;7.23;4.97;;;0.30;99.90;;;;;;4165782;28;20528;-61
2023/11/19 04:13:41;;;;;;;6.13;4.40;;;0.20;99.90;;;;;;4177608;28;20332;-61
2023/11/19 04:15:43;;;;;;;6.87;4.20;;;0.20;99.90;;;;;;4175697;28;20767;-61
2023/11/19 04:17:45;;;;;;;7.73;4.60;;;0.20;99.90;;;;;;4172861;28;20305;-61
2023/11/19 04:19:46;;;;;;;7.17;4.47;;;0.20;99.90;;;;;;4176823;28;20366;-62
2023/11/19 04:21:47;;;;;;;9.00;5.03;;;0.20;99.90;;;;;;4171890;28;20721;-61
2023/11/19 04:23:48;;;;;;;5.60;3.90;;;0.20;99.90;;;;;;4160819;28;20275;-61
2023/11/19 04:25:49;;;;;;;6.70;4.40;;;0.20;99.90;;;;;;4160357;28;20677;-61
2023/11/19 04:27:50;;;;;;;7.63;4.53;;;0.10;99.90;;;;;;4164152;28;20275;-60
2023/11/19 04:29:51;;;;;;;7.97;4.50;;;0.10;99.90;;;;;;4160882;28;20321;-60
2023/11/19 04:31:53;;;;;;;6.43;4.50;;;0.10;99.90;;;;;;4162093;28;20321;-60
2023/11/19 04:33:55;;;;;;;6.60;4.53;;;0.10;99.90;;;;;;4161768;28;20729;-61
2023/11/19 04:35:56;;;;;;;6.47;4.50;;;0.10;99.90;;;;;;4160719;28;20338;-61
2023/11/19 04:37:57;;;;;;;6.67;4.23;;;0.10;99.90;;;;;;4163277;28;20266;-59
2023/11/19 04:39:59;;;;;;;6.43;4.57;;;0.00;99.90;;;;;;4159902;28;20270;-59
2023/11/19 04:42:00;;;;;;;6.33;4.07;;;0.10;99.90;;;;;;4161672;28;20294;-61
2023/11/19 04:44:02;;;;;;;6.17;4.53;;;0.10;99.90;;;;;;4175628;28;20822;-61
2023/11/19 04:46:06;;;;;;;7.43;4.53;;;0.10;99.90;;;;;;4176774;28;20803;-61
2023/11/19 04:48:09;;;;;;;6.97;4.53;;;0.10;99.90;;;;;;4148798;28;20615;-61
2023/11/19 04:50:10;;;;;;;6.47;4.50;;;0.10;99.90;;;;;;4160515;28;20263;-62
2023/11/19 04:52:11;;;;;;;5.33;3.70;;;0.10;99.90;;;;;;4159887;28;20271;-61
2023/11/19 04:54:13;;;;;;;5.63;3.97;;;0.10;99.90;;;;;;4162553;28;20670;-61
2023/11/19 04:56:15;;;;;;;6.17;4.00;;;0.10;99.90;;;;;;4159849;28;20290;-59
2023/11/19 04:58:16;;;;;;;6.00;4.43;;;0.10;99.90;;;;;;4163052;28;20357;-62
2023/11/19 05:00:17;;;;;;;6.87;4.80;;;0.10;99.90;;;;;;4160295;28;20738;-61
2023/11/19 05:02:18;;;;;;;6.47;4.77;;;0.10;99.90;;;;;;4159566;28;20283;-61
2023/11/19 05:04:19;;;;;;;5.73;4.33;;;0.20;99.90;;;;;;4163461;28;20333;-60
2023/11/19 05:06:21;;;;;;;5.80;3.90;;;0.20;99.90;;;;;;4159827;28;20608;-62
2023/11/19 05:08:22;;;;;;;6.13;4.23;;;0.20;99.90;;;;;;4163586;28;20271;-61
2023/11/19 05:10:24;;;;;;;6.23;4.23;;;0.20;99.90;;;;;;4159939;28;20653;-60
2023/11/19 05:12:25;;;;;;;5.97;4.20;;;0.20;99.90;;;;;;4160180;28;20654;-60
2023/11/19 05:14:26;;;;;;;5.33;3.83;;;0.20;99.90;;;;;;4163644;28;20321;-61
2023/11/19 05:16:28;;;;;;;6.43;4.70;;;0.20;99.90;;;;;;4159649;28;20639;-58
2023/11/19 05:18:29;;;;;;;6.60;4.40;;;0.20;99.90;;;;;;4161997;28;20305;-62
2023/11/19 05:20:30;;;;;;;6.53;4.10;;;0.20;99.90;;;;;;4161570;28;20286;-61
2023/11/19 05:22:32;;;;;;;5.70;4.27;;;0.20;99.90;;;;;;4160037;28;20362;-61
2023/11/19 05:24:33;;;;;;;6.57;4.43;;;0.20;99.90;;;;;;4166975;28;20270;-60
2023/11/19 05:26:34;;;;;;;6.10;4.23;;;0.10;99.90;;;;;;4176544;28;20262;-59
2023/11/19 05:28:39;;;;;;;5.83;4.03;;;0.20;99.90;;;;;;4173347;28;20385;-61
2023/11/19 05:30:40;;;;;;;6.60;4.50;;;0.10;99.90;;;;;;4172834;28;20343;-59
2023/11/19 05:32:41;;;;;;;6.73;4.67;;;0.10;99.90;;;;;;4176140;28;20344;-60
2023/11/19 05:34:43;;;;;;;8.37;4.70;;;0.20;99.90;;;;;;4171308;28;20308;-58
2023/11/19 05:36:45;;;;;;;6.67;4.83;;;0.30;99.90;;;;;;4176211;28;20266;-60
2023/11/19 05:38:46;;;;;;;6.20;4.50;;;0.30;99.90;;;;;;4174865;28;20270;-60
2023/11/19 05:40:48;;;;;;;7.27;4.33;;;0.30;99.90;;;;;;4172117;28;20309;-62
2023/11/19 05:42:49;;;;;;;7.03;4.60;;;0.30;99.90;;;;;;4176305;28;20822;-61
2023/11/19 05:44:51;;;;;;;7.63;4.47;;;0.30;99.90;;;;;;4170868;28;20279;-62
2023/11/19 05:46:52;;;;;;;8.33;4.57;;;0.40;99.90;;;;;;4175917;28;20368;-60
2023/11/19 05:48:54;;;;;;;6.93;4.70;;;0.50;99.90;;;;;;4173706;28;20848;-61
2023/11/19 05:50:55;;;;;;;5.33;3.70;;;0.70;99.90;;;;;;4172897;28;20691;-62
2023/11/19 05:52:56;;;;;;;7.70;4.90;;;0.90;99.90;;;;;;4175859;28;20270;-57
2023/11/19 05:54:57;;;;;;;5.97;4.37;;;1.10;99.90;;;;;;4170161;28;20753;-61
2023/11/19 05:56:58;;;;;;;8.53;4.77;;;1.40;99.90;;;;;;4175698;28;20258;-61
2023/11/19 05:59:06;;;;;;;5.47;4.20;;;1.60;99.90;;;;;;4175992;28;20319;-61
2023/11/19 06:01:08;;;;;;;5.57;4.20;;;1.90;99.90;;;;;;4172984;28;20289;-63
2023/11/19 06:03:09;;;;;;;6.17;4.17;;;2.10;99.90;;;;;;4192493;28;20288;-62
2023/11/19 06:05:10;;;;;;;6.73;4.37;;;2.30;99.90;;;;;;4180101;28;20274;-61
2023/11/19 06:07:11;;;;;;;6.93;4.30;;;2.50;99.90;;;;;;4159371;28;20258;-61
2023/11/19 06:09:13;;;;;;;4.67;3.57;;;2.80;99.90;;;;;;4159388;28;20325;-62
2023/11/19 06:11:18;;;;;;;4.97;3.80;;;3.10;99.90;;;;;;4159356;28;20332;-60
2023/11/19 06:13:19;;;;;;;8.00;4.67;;;3.30;99.90;;;;;;4159626;28;20349;-61
2023/11/19 06:15:21;;;;;;;5.90;4.03;;;3.70;99.90;;;;;;4159426;28;20255;-61
2023/11/19 06:17:22;;;;;;;5.77;4.20;;;4.10;99.90;;;;;;4158032;28;20034;-61
2023/11/19 06:19:24;;;;;;;7.97;5.00;;;4.50;99.90;;;;;;4158602;28;20042;-62
2023/11/19 06:21:26;;;;;;;6.67;5.07;;;4.70;99.90;;;;;;4175165;28;20067;-62
2023/11/19 06:23:27;;;;;;;6.37;5.10;;;4.90;99.90;;;;;;4174608;28;20506;-62
2023/11/19 06:25:28;;;;;;;6.50;5.10;;;5.10;99.90;;;;;;4175741;28;20037;-62
2023/11/19 06:27:29;;;;;;;7.00;5.67;;;5.20;99.90;;;;;;4174928;28;20037;-59
2023/11/19 06:29:30;;;;;;;6.20;4.70;;;5.30;99.90;;;;;;4175733;28;20025;-61
2023/11/19 06:31:31;;;;;;;8.50;5.37;;;5.30;99.90;;;;;;4175525;28;20499;-61
2023/11/19 06:33:32;;;;;;;6.47;5.10;;;5.40;99.90;;;;;;4175649;28;20037;-63
2023/11/19 06:35:36;;;;;;;5.53;4.70;;;5.60;99.90;;;;;;4174922;28;20443;-62
2023/11/19 06:37:41;;;;;;;4.93;4.43;;;5.80;99.90;;;;;;4175626;28;20422;-62
2023/11/19 06:39:42;;;;;;;9.73;4.63;;;6.10;99.90;;;;;;4158779;28;20045;-61
2023/11/19 06:41:46;;;;;;;6.17;4.57;;;6.30;99.90;;;;;;4158365;28;20053;-62
2023/11/19 06:43:47;;;;;;;7.43;5.13;;;6.60;99.90;;;;;;4159589;28;20081;-61
2023/11/19 06:45:49;;;;;;;6.70;5.00;;;6.80;99.90;;;;;;4158796;28;20335;-63
2023/11/19 06:47:50;;;;;;;5.50;4.23;;;7.00;99.90;;;;;;4158096;28;20087;-62
2023/11/19 06:49:52;;;;;;;5.60;3.90;;;7.20;99.90;;;;;;4158248;28;20049;-62
2023/11/19 06:51:53;;;;;;;6.10;4.80;;;7.20;99.90;;;;;;4159020;28;20029;-63
2023/11/19 06:53:54;;;;;;;5.17;4.63;;;7.30;99.90;;;;;;4158154;28;20099;-62
2023/11/19 06:55:56;;;;;;;4.60;4.10;;;7.30;99.90;;;;;;4157626;28;20505;-63
2023/11/19 06:58:00;;;;;;;5.93;5.10;;;7.30;99.90;;;;;;4158649;28;20025;-62
2023/11/19 07:00:01;;;;;;;4.90;4.40;;;7.40;99.90;;;;;;4157921;28;20045;-62
2023/11/19 07:02:03;;;;;;;4.43;3.67;;;7.60;99.90;;;;;;4158487;28;20057;-63
2023/11/19 07:04:08;;;;;;;5.07;4.00;;;7.80;99.90;;;;;;4158032;28;20041;-62
2023/11/19 07:06:10;;;;;;;4.47;3.67;;;7.90;99.90;;;;;;4162345;28;20114;-62
2023/11/19 07:08:11;;;;;;;5.43;3.90;;;8.00;99.90;;;;;;4161920;28;20033;-61
2023/11/19 07:10:12;;;;;;;4.50;4.10;;;7.90;99.90;;;;;;4164070;28;20037;-62
2023/11/19 07:12:14;;;;;;;5.23;4.13;;;7.80;99.90;;;;;;4174576;28;20079;-62
2023/11/19 07:14:16;;;;;;;4.80;4.30;;;7.70;99.90;;;;;;4177691;28;20451;-63
2023/11/19 07:16:17;;;;;;;6.43;3.97;;;7.60;99.90;;;;;;4172125;28;20095;-62
2023/11/19 07:18:18;;;;;;;5.23;4.10;;;7.60;99.90;;;;;;4177383;28;20148;-61
2023/11/19 07:20:20;;;;;;;4.70;3.97;;;7.50;99.90;;;;;;4168351;28;20103;-61
2023/11/19 07:22:21;;;;;;;4.20;3.30;;;7.40;99.90;;;;;;4164931;28;20053;-61
2023/11/19 07:24:22;;;;;;;4.77;3.50;;;7.30;99.90;;;;;;4161431;28;20429;-61
2023/11/19 07:26:23;;;;;;;4.07;3.30;;;7.40;99.90;;;;;;4161803;28;20033;-63
2023/11/19 07:28:24;;;;;;;4.47;3.07;;;7.50;99.90;;;;;;4160750;28;20087;-60
2023/11/19 07:30:26;;;;;;;4.13;3.30;;;7.50;99.90;;;;;;4161644;28;20041;-61
2023/11/19 07:32:27;;;;;;;6.60;3.97;;;7.70;99.90;;;;;;4171095;28;20036;-61
2023/11/19 07:34:29;;;;;;;5.63;4.07;;;7.70;99.90;;;;;;4163379;28;20037;-61
2023/11/19 07:36:30;;;;;;;4.37;3.73;;;7.80;99.90;;;;;;4161410;28;20035;-60
2023/11/19 07:38:32;;;;;;;6.13;3.70;;;7.90;99.90;;;;;;4188960;28;20507;-61
2023/11/19 07:40:33;;;;;;;3.83;3.20;;;8.00;99.90;;;;;;4193747;28;20083;-61
2023/11/19 07:42:34;;;;;;;9.17;6.33;;;8.10;99.90;;;;;;4179254;28;20091;-63
2023/11/19 07:44:36;;;;;;;9.60;6.67;;;8.10;99.90;;;;;;4171322;28;20078;-61
2023/11/19 07:46:37;;;;;;;8.63;6.00;;;8.20;99.90;;;;;;4176656;28;20049;-63
2023/11/19 07:48:39;;;;;;;4.87;3.53;;;8.50;99.90;;;;;;4163764;28;20045;-61
2023/11/19 07:50:40;;;;;;;5.50;3.77;;;8.70;99.90;;;;;;4160312;28;20030;-62
2023/11/19 07:52:41;;;;;;;3.50;3.13;;;9.10;99.90;;;;;;4161113;28;20025;-61
2023/11/19 07:54:43;;;;;;;3.83;3.07;;;8.90;99.90;;;;;;4160520;28;20163;-61
2023/11/19 07:56:44;;;;;;;3.37;2.70;;;8.70;99.90;;;;;;4161075;28;20108;-63
2023/11/19 07:58:46;;;;;;;2.50;2.30;;;8.40;99.90;;;;;;4153515;28;20051;-61
2023/11/19 08:00:47;;;;;;;3.33;2.87;;;7.70;99.90;;;;;;4162897;28;20045;-62
2023/11/19 08:02:49;;;;;;;7.27;5.27;;;7.10;99.90;;;;;;4170963;28;20046;-61
2023/11/19 08:04:51;;;;;;;9.90;6.43;;;6.50;99.90;;;;;;4160977;28;20033;-61
2023/11/19 08:06:52;;;;;;;7.77;5.90;;;6.00;99.90;;;;;;4152611;28;20087;-65
2023/11/19 08:08:54;;;;;;;7.27;5.40;;;5.60;99.90;;;;;;4176393;28;20086;-62
2023/11/19 08:10:56;;;;;;;7.30;5.40;;;5.40;99.90;;;;;;4175095;28;20098;-63
2023/11/19 08:12:57;;;;;;;6.43;5.20;;;5.30;99.90;;;;;;4176207;28;20119;-62
2023/11/19 08:14:58;;;;;;;9.17;6.40;;;5.20;99.90;;;;;;4174834;28;20044;-61
2023/11/19 08:16:59;;;;;;;7.83;5.40;;;4.90;99.90;;;;;;4171846;28;20048;-61
2023/11/19 08:19:00;;;;;;;8.43;6.20;;;5.00;99.90;;;;;;4177647;28;20538;-60
2023/11/19 08:21:04;;;;;;;7.40;5.23;;;5.00;99.90;;;;;;4176549;28;20048;-58
2023/11/19 08:23:05;;;;;;;7.63;5.57;;;5.00;99.90;;;;;;4167268;28;20038;-60
2023/11/19 08:25:07;;;;;;;9.87;5.97;;;4.70;99.90;;;;;;4172166;28;20102;-61
2023/11/19 08:27:08;;;;;;;8.83;5.63;;;4.40;99.90;;;;;;4170438;28;20107;-60
2023/11/19 08:29:09;;;;;;;9.03;6.53;;;4.20;99.90;;;;;;4159761;28;20045;-61
2023/11/19 08:31:10;;;;;;;10.83;6.13;;;4.10;99.90;;;;;;4159935;28;20085;-62
2023/11/19 08:33:12;;;;;;;9.23;6.20;;;4.20;99.90;;;;;;4170970;28;20118;-59
2023/11/19 08:35:13;;;;;;;15.93;7.37;;;4.30;99.90;;;;;;4176298;28;20037;-62
2023/11/19 08:37:14;;;;;;;11.03;6.63;;;4.30;99.90;;;;;;4176064;28;20075;-62
2023/11/19 08:39:15;;;;;;;11.90;6.43;;;4.30;99.90;;;;;;4172862;28;20029;-58
2023/11/19 08:41:17;;;;;;;14.93;9.13;;;4.50;99.90;;;;;;4160391;28;20068;-59
2023/11/19 08:43:18;;;;;;;12.27;6.93;;;4.80;99.90;;;;;;4160816;28;20484;-61
2023/11/19 08:45:20;;;;;;;10.30;5.63;;;4.70;99.90;;;;;;4160595;28;20033;-61
2023/11/19 08:47:22;;;;;;;11.20;6.73;;;4.70;99.90;;;;;;4161595;28;20092;-61
2023/11/19 08:49:23;;;;;;;8.60;5.80;;;4.70;99.90;;;;;;4174693;28;20135;-61
2023/11/19 08:51:25;;;;;;;9.97;6.20;;;4.80;99.90;;;;;;4176363;28;20033;-59
2023/11/19 08:53:26;;;;;;;9.90;6.27;;;5.00;99.90;;;;;;4176697;28;20033;-61
2023/11/19 08:55:27;;;;;;;11.43;6.00;;;5.10;99.90;;;;;;4158374;28;20071;-62
2023/11/19 08:57:28;;;;;;;23.07;7.30;;;5.00;99.90;;;;;;4164315;28;20077;-62
2023/11/19 08:59:30;;;;;;;8.77;6.40;;;5.00;99.90;;;;;;4142907;28;20085;-61
2023/11/19 09:01:31;;;;;;;10.63;6.17;;;5.00;99.90;;;;;;4159355;28;20576;-59
2023/11/19 09:03:33;;;;;;;11.30;5.83;;;4.80;99.90;;;;;;4155075;28;20091;-62
2023/11/19 09:05:34;;;;;;;11.17;6.17;;;4.70;99.90;;;;;;4173586;28;20049;-60
2023/11/19 09:07:35;;;;;;;9.80;6.30;;;4.70;99.90;;;;;;4175975;28;20134;-61
2023/11/19 09:09:36;;;;;;;8.50;6.10;;;4.50;99.90;;;;;;4176342;28;20411;-59
2023/11/19 09:11:37;;;;;;;8.60;6.07;;;4.20;99.90;;;;;;4174238;28;20099;-59
2023/11/19 09:13:39;;;;;;;9.63;5.80;;;4.10;99.90;;;;;;4174173;28;20140;-60
2023/11/19 09:15:40;;;;;;;7.90;5.43;;;4.10;99.90;;;;;;4176055;28;20037;-61
2023/11/19 09:17:41;;;;;;;9.03;6.10;;;4.00;99.90;;;;;;4169339;28;20059;-59
2023/11/19 09:19:42;;;;;;;9.10;5.77;;;3.80;99.90;;;;;;4169308;28;20087;-56
2023/11/19 09:21:43;;;;;;;9.47;5.57;;;3.80;99.90;;;;;;4174205;28;20298;-61
2023/11/19 09:23:44;;;;;;;10.33;6.17;;;3.70;99.90;;;;;;4173971;28;20033;-60
2023/11/19 09:25:46;;;;;;;8.43;5.50;;;3.70;99.90;;;;;;4175627;28;20025;-59
2023/11/19 09:27:47;;;;;;;10.20;5.83;;;3.90;99.90;;;;;;4172510;28;20725;-58
2023/11/19 09:29:49;;;;;;;11.13;6.70;;;3.90;99.90;;;;;;4172720;28;20033;-62
2023/11/19 09:31:50;;;;;;;7.77;5.73;;;4.00;99.90;;;;;;4174650;28;20484;-62
2023/11/19 09:33:51;;;;;;;8.63;5.60;;;4.10;99.90;;;;;;4173672;28;20846;-60
2023/11/19 09:35:53;;;;;;;9.10;5.60;;;4.10;99.90;;;;;;4174883;28;20286;-59
2023/11/19 09:37:54;;;;;;;8.07;6.40;;;4.20;99.90;;;;;;4155559;28;20283;-56
2023/11/19 09:39:55;;;;;;;7.73;5.70;;;4.20;99.90;;;;;;4175056;28;20443;-59
2023/11/19 09:41:57;;;;;;;9.73;5.90;;;4.20;99.90;;;;;;4174474;28;20298;-61
2023/11/19 09:43:58;;;;;;;11.20;6.37;;;4.30;99.90;;;;;;4174233;28;20067;-60
2023/11/19 09:46:06;;;;;;;8.77;5.03;;;4.20;99.90;;;;;;4175146;28;20625;-63
2023/11/19 09:48:08;;;;;;;8.33;5.37;;;4.10;99.90;;;;;;4173603;28;20343;-59
2023/11/19 09:50:12;;;;;;;8.17;5.70;;;4.10;99.90;;;;;;4159658;28;20080;-62
2023/11/19 09:52:14;;;;;;;7.70;5.57;;;4.00;99.90;;;;;;4174040;28;20828;-59
2023/11/19 09:54:15;;;;;;;9.53;5.67;;;4.00;99.90;;;;;;4173710;28;20281;-59
2023/11/19 09:56:19;;;;;;;13.20;6.07;;;3.90;99.90;;;;;;4172850;28;20278;-59
2023/11/19 09:58:21;;;;;;;10.67;5.73;;;3.90;99.90;;;;;;4173658;28;20068;-62
2023/11/19 10:00:22;;;;;;;9.33;5.87;;;3.90;99.90;;;;;;4154541;28;20352;-61
2023/11/19 10:02:23;;;;;;;8.33;5.30;;;3.90;99.90;;;;;;4155582;28;20049;-60
2023/11/19 10:04:29;;;;;;;7.87;5.40;;;3.90;99.90;;;;;;4166731;28;20191;-60
2023/11/19 10:06:30;;;;;;;8.23;5.13;;;3.70;99.90;;;;;;4158996;28;20353;-62
2023/11/19 10:08:31;;;;;;;5.57;4.23;;;3.60;99.90;;;;;;4140431;28;20342;-62
2023/11/19 10:10:32;;;;;;;8.00;5.03;;;3.60;99.90;;;;;;4183485;28;20557;-58
2023/11/19 10:12:33;;;;;;;7.77;5.93;;;3.70;99.90;;;;;;4192036;28;20277;-63
2023/11/19 10:14:37;;;;;;;10.23;5.23;;;3.60;99.90;;;;;;4167939;28;20293;-61
2023/11/19 10:16:40;;;;;;;9.17;5.27;;;3.40;99.90;;;;;;4175411;28;20372;-61
2023/11/19 10:18:50;;;;;;;5.80;4.67;;;3.40;99.90;;;;;;4170152;28;20762;-61
2023/11/19 10:20:51;;;;;;;7.93;5.65;;;3.40;99.90;;;;;;4159961;28;20751;-60
2023/11/19 10:22:56;;;;;;;8.53;6.03;;;3.30;99.90;;;;;;4161971;28;20847;-62
2023/11/19 10:24:57;;;;;;;8.17;4.90;;;3.20;99.90;;;;;;4163030;28;20290;-59
2023/11/19 10:26:59;;;;;;;7.63;5.70;;;3.10;99.90;;;;;;4158279;28;20290;-62
2023/11/19 10:29:01;;;;;;;7.80;5.47;;;3.10;99.90;;;;;;4159739;28;20275;-61
2023/11/19 10:31:05;;;;;;;8.70;5.87;;;3.00;99.90;;;;;;4164829;28;20795;-62
2023/11/19 10:33:19;;;;;;;8.80;6.00;;;3.10;99.90;;;;;;4173205;28;20740;-55
2023/11/19 10:35:20;;;;;;;8.73;5.40;;;3.00;99.90;;;;;;4159174;28;20333;-58
2023/11/19 10:37:31;;;;;;;7.60;5.00;;;3.00;99.90;;;;;;4161226;28;20424;-62
2023/11/19 10:39:51;;;;;;;;;;;3.00;99.90;;;;;;4164090;28;20697;-58
2023/11/19 10:41:52;;;;;;;8.50;5.60;;;3.00;99.90;;;;;;4171992;28;19921;-59
2023/11/19 10:43:53;;;;;;;6.50;4.77;;;3.00;99.90;;;;;;4163534;28;20382;-59